sensor_id;sensor_type;location;lat;lon;timestamp;P1;durP1;ratioP1;P2;durP2;ratioP2
13114;SDS011;6623;52.120;8.660;2023-04-03T00:02:11;3.73;;;1.20;;
13114;SDS011;6623;52.120;8.660;2023-04-03T00:04:37;3.20;;;1.07;;
13114;SDS011;6623;52.120;8.660;2023-04-03T00:07:02;2.57;;;1.43;;
13114;SDS011;6623;52.120;8.660;2023-04-03T00:09:28;3.30;;;1.30;;
13114;SDS011;6623;52.120;8.660;2023-04-03T00:11:53;1.43;;;1.00;;
13114;SDS011;6623;52.120;8.660;2023-04-03T00:14:19;2.83;;;1.17;;
13114;SDS011;6623;52.120;8.660;2023-04-03T00:16:44;3.17;;;1.27;;
13114;SDS011;6623;52.120;8.660;2023-04-03T00:19:10;1.93;;;1.23;;
13114;SDS011;6623;52.120;8.660;2023-04-03T00:21:37;2.60;;;1.00;;
13114;SDS011;6623;52.120;8.660;2023-04-03T00:24:02;2.63;;;1.30;;
13114;SDS011;6623;52.120;8.660;2023-04-03T00:26:28;3.43;;;1.37;;
13114;SDS011;6623;52.120;8.660;2023-04-03T00:28:53;1.47;;;1.10;;
13114;SDS011;6623;52.120;8.660;2023-04-03T00:31:19;3.80;;;1.30;;
13114;SDS011;6623;52.120;8.660;2023-04-03T00:33:45;2.50;;;1.27;;
13114;SDS011;6623;52.120;8.660;2023-04-03T00:36:11;4.00;;;1.23;;
13114;SDS011;6623;52.120;8.660;2023-04-03T00:38:38;2.10;;;1.33;;
13114;SDS011;6623;52.120;8.660;2023-04-03T00:41:03;3.27;;;1.40;;
13114;SDS011;6623;52.120;8.660;2023-04-03T00:43:29;3.73;;;1.37;;
13114;SDS011;6623;52.120;8.660;2023-04-03T00:45:56;2.23;;;1.30;;
13114;SDS011;6623;52.120;8.660;2023-04-03T00:48:24;3.33;;;1.20;;
13114;SDS011;6623;52.120;8.660;2023-04-03T00:50:54;1.93;;;1.30;;
13114;SDS011;6623;52.120;8.660;2023-04-03T00:53:39;4.67;;;1.30;;
13114;SDS011;6623;52.120;8.660;2023-04-03T00:56:09;3.00;;;1.50;;
13114;SDS011;6623;52.120;8.660;2023-04-03T00:58:39;3.20;;;1.47;;
13114;SDS011;6623;52.120;8.660;2023-04-03T01:01:10;3.43;;;1.60;;
13114;SDS011;6623;52.120;8.660;2023-04-03T01:03:40;2.43;;;1.40;;
13114;SDS011;6623;52.120;8.660;2023-04-03T01:06:05;5.33;;;1.77;;
13114;SDS011;6623;52.120;8.660;2023-04-03T01:08:31;3.23;;;1.37;;
13114;SDS011;6623;52.120;8.660;2023-04-03T01:10:57;3.23;;;1.60;;
13114;SDS011;6623;52.120;8.660;2023-04-03T01:15:54;2.20;;;1.37;;
13114;SDS011;6623;52.120;8.660;2023-04-03T01:18:20;3.33;;;1.40;;
13114;SDS011;6623;52.120;8.660;2023-04-03T01:26:11;5.07;;;1.40;;
13114;SDS011;6623;52.120;8.660;2023-04-03T01:28:37;3.40;;;1.37;;
13114;SDS011;6623;52.120;8.660;2023-04-03T01:31:10;3.70;;;1.33;;
13114;SDS011;6623;52.120;8.660;2023-04-03T01:33:38;3.47;;;1.53;;
13114;SDS011;6623;52.120;8.660;2023-04-03T01:36:04;3.47;;;1.53;;
13114;SDS011;6623;52.120;8.660;2023-04-03T01:38:30;3.30;;;1.43;;
13114;SDS011;6623;52.120;8.660;2023-04-03T01:40:55;3.10;;;1.70;;
13114;SDS011;6623;52.120;8.660;2023-04-03T01:43:21;4.77;;;1.63;;
13114;SDS011;6623;52.120;8.660;2023-04-03T01:45:47;3.07;;;1.30;;
13114;SDS011;6623;52.120;8.660;2023-04-03T01:48:14;2.27;;;1.43;;
13114;SDS011;6623;52.120;8.660;2023-04-03T01:50:40;2.20;;;1.40;;
13114;SDS011;6623;52.120;8.660;2023-04-03T01:53:06;3.93;;;1.40;;
13114;SDS011;6623;52.120;8.660;2023-04-03T01:55:31;3.27;;;1.63;;
13114;SDS011;6623;52.120;8.660;2023-04-03T01:57:57;3.53;;;1.80;;
13114;SDS011;6623;52.120;8.660;2023-04-03T02:00:22;3.37;;;1.80;;
13114;SDS011;6623;52.120;8.660;2023-04-03T02:02:48;3.20;;;1.93;;
13114;SDS011;6623;52.120;8.660;2023-04-03T02:05:14;5.43;;;1.80;;
13114;SDS011;6623;52.120;8.660;2023-04-03T02:07:40;3.00;;;1.60;;
13114;SDS011;6623;52.120;8.660;2023-04-03T02:10:05;3.27;;;1.60;;
13114;SDS011;6623;52.120;8.660;2023-04-03T02:12:31;3.27;;;1.97;;
13114;SDS011;6623;52.120;8.660;2023-04-03T02:14:57;5.83;;;2.07;;
13114;SDS011;6623;52.120;8.660;2023-04-03T02:17:22;3.23;;;1.73;;
13114;SDS011;6623;52.120;8.660;2023-04-03T02:19:48;2.97;;;1.67;;
13114;SDS011;6623;52.120;8.660;2023-04-03T02:22:13;4.77;;;1.87;;
13114;SDS011;6623;52.120;8.660;2023-04-03T02:24:39;4.07;;;1.67;;
13114;SDS011;6623;52.120;8.660;2023-04-03T02:27:05;5.00;;;1.70;;
13114;SDS011;6623;52.120;8.660;2023-04-03T02:29:30;2.63;;;1.50;;
13114;SDS011;6623;52.120;8.660;2023-04-03T02:31:56;2.60;;;1.47;;
13114;SDS011;6623;52.120;8.660;2023-04-03T02:34:21;3.17;;;1.63;;
13114;SDS011;6623;52.120;8.660;2023-04-03T02:36:47;2.80;;;1.50;;
13114;SDS011;6623;52.120;8.660;2023-04-03T02:39:13;5.50;;;1.83;;
13114;SDS011;6623;52.120;8.660;2023-04-03T02:41:38;2.77;;;1.47;;
13114;SDS011;6623;52.120;8.660;2023-04-03T02:44:05;4.93;;;1.60;;
13114;SDS011;6623;52.120;8.660;2023-04-03T02:46:31;3.00;;;1.40;;
13114;SDS011;6623;52.120;8.660;2023-04-03T02:48:57;3.07;;;1.50;;
13114;SDS011;6623;52.120;8.660;2023-04-03T02:51:23;2.77;;;1.70;;
13114;SDS011;6623;52.120;8.660;2023-04-03T02:53:49;2.97;;;1.37;;
13114;SDS011;6623;52.120;8.660;2023-04-03T02:56:15;3.73;;;1.57;;
13114;SDS011;6623;52.120;8.660;2023-04-03T02:58:42;5.27;;;1.90;;
13114;SDS011;6623;52.120;8.660;2023-04-03T03:01:07;5.13;;;2.07;;
13114;SDS011;6623;52.120;8.660;2023-04-03T03:03:33;3.20;;;1.50;;
13114;SDS011;6623;52.120;8.660;2023-04-03T03:06:03;3.60;;;1.63;;
13114;SDS011;6623;52.120;8.660;2023-04-03T03:08:36;3.40;;;1.70;;
13114;SDS011;6623;52.120;8.660;2023-04-03T03:11:02;3.93;;;1.70;;
13114;SDS011;6623;52.120;8.660;2023-04-03T03:13:29;7.83;;;1.97;;
13114;SDS011;6623;52.120;8.660;2023-04-03T03:15:55;3.87;;;1.70;;
13114;SDS011;6623;52.120;8.660;2023-04-03T03:18:21;4.30;;;1.80;;
13114;SDS011;6623;52.120;8.660;2023-04-03T03:20:50;4.80;;;1.77;;
13114;SDS011;6623;52.120;8.660;2023-04-03T03:23:17;4.77;;;2.00;;
13114;SDS011;6623;52.120;8.660;2023-04-03T03:25:43;3.67;;;1.70;;
13114;SDS011;6623;52.120;8.660;2023-04-03T03:28:09;4.30;;;2.10;;
13114;SDS011;6623;52.120;8.660;2023-04-03T03:30:34;5.60;;;2.00;;
13114;SDS011;6623;52.120;8.660;2023-04-03T03:33:00;3.40;;;1.80;;
13114;SDS011;6623;52.120;8.660;2023-04-03T03:35:26;4.47;;;1.97;;
13114;SDS011;6623;52.120;8.660;2023-04-03T03:37:52;4.17;;;2.30;;
13114;SDS011;6623;52.120;8.660;2023-04-03T03:40:17;3.77;;;1.80;;
13114;SDS011;6623;52.120;8.660;2023-04-03T03:42:43;3.03;;;2.00;;
13114;SDS011;6623;52.120;8.660;2023-04-03T03:45:08;4.30;;;1.57;;
13114;SDS011;6623;52.120;8.660;2023-04-03T03:47:34;4.93;;;1.70;;
13114;SDS011;6623;52.120;8.660;2023-04-03T03:50:00;3.30;;;1.77;;
13114;SDS011;6623;52.120;8.660;2023-04-03T03:52:26;4.83;;;1.77;;
13114;SDS011;6623;52.120;8.660;2023-04-03T03:54:51;3.63;;;1.50;;
13114;SDS011;6623;52.120;8.660;2023-04-03T03:57:17;2.00;;;1.43;;
13114;SDS011;6623;52.120;8.660;2023-04-03T03:59:42;3.17;;;1.70;;
13114;SDS011;6623;52.120;8.660;2023-04-03T04:02:09;2.93;;;1.60;;
13114;SDS011;6623;52.120;8.660;2023-04-03T04:04:36;3.80;;;1.53;;
13114;SDS011;6623;52.120;8.660;2023-04-03T04:07:02;3.20;;;2.00;;
13114;SDS011;6623;52.120;8.660;2023-04-03T04:09:28;8.27;;;2.00;;
13114;SDS011;6623;52.120;8.660;2023-04-03T04:11:54;3.47;;;1.83;;
13114;SDS011;6623;52.120;8.660;2023-04-03T04:14:19;4.47;;;1.87;;
13114;SDS011;6623;52.120;8.660;2023-04-03T04:16:45;3.13;;;1.97;;
13114;SDS011;6623;52.120;8.660;2023-04-03T04:19:14;4.13;;;1.80;;
13114;SDS011;6623;52.120;8.660;2023-04-03T04:21:40;5.33;;;2.10;;
13114;SDS011;6623;52.120;8.660;2023-04-03T04:24:06;4.50;;;2.00;;
13114;SDS011;6623;52.120;8.660;2023-04-03T04:26:32;4.80;;;2.00;;
13114;SDS011;6623;52.120;8.660;2023-04-03T04:28:57;3.50;;;2.00;;
13114;SDS011;6623;52.120;8.660;2023-04-03T04:31:23;2.63;;;2.00;;
13114;SDS011;6623;52.120;8.660;2023-04-03T04:33:48;3.43;;;1.93;;
13114;SDS011;6623;52.120;8.660;2023-04-03T04:36:14;4.70;;;2.10;;
13114;SDS011;6623;52.120;8.660;2023-04-03T04:38:40;3.97;;;2.03;;
13114;SDS011;6623;52.120;8.660;2023-04-03T04:41:06;4.33;;;2.10;;
13114;SDS011;6623;52.120;8.660;2023-04-03T04:43:32;5.20;;;2.20;;
13114;SDS011;6623;52.120;8.660;2023-04-03T04:46:04;2.50;;;1.77;;
13114;SDS011;6623;52.120;8.660;2023-04-03T04:48:32;4.53;;;2.30;;
13114;SDS011;6623;52.120;8.660;2023-04-03T04:50:58;5.03;;;1.67;;
13114;SDS011;6623;52.120;8.660;2023-04-03T04:53:24;4.07;;;2.03;;
13114;SDS011;6623;52.120;8.660;2023-04-03T04:55:49;5.37;;;1.97;;
13114;SDS011;6623;52.120;8.660;2023-04-03T04:58:15;6.37;;;2.23;;
13114;SDS011;6623;52.120;8.660;2023-04-03T05:00:41;3.47;;;2.00;;
13114;SDS011;6623;52.120;8.660;2023-04-03T05:03:06;4.57;;;2.40;;
13114;SDS011;6623;52.120;8.660;2023-04-03T05:05:32;5.70;;;2.40;;
13114;SDS011;6623;52.120;8.660;2023-04-03T05:07:57;4.93;;;2.57;;
13114;SDS011;6623;52.120;8.660;2023-04-03T05:10:23;3.03;;;2.17;;
13114;SDS011;6623;52.120;8.660;2023-04-03T05:12:48;4.17;;;2.40;;
13114;SDS011;6623;52.120;8.660;2023-04-03T05:15:14;3.67;;;2.63;;
13114;SDS011;6623;52.120;8.660;2023-04-03T05:17:40;5.27;;;2.50;;
13114;SDS011;6623;52.120;8.660;2023-04-03T05:20:05;3.60;;;2.17;;
13114;SDS011;6623;52.120;8.660;2023-04-03T05:22:31;3.00;;;2.37;;
13114;SDS011;6623;52.120;8.660;2023-04-03T05:24:57;3.57;;;1.80;;
13114;SDS011;6623;52.120;8.660;2023-04-03T05:27:22;5.57;;;2.10;;
13114;SDS011;6623;52.120;8.660;2023-04-03T05:29:49;6.60;;;2.10;;
13114;SDS011;6623;52.120;8.660;2023-04-03T05:32:17;2.93;;;1.80;;
13114;SDS011;6623;52.120;8.660;2023-04-03T05:34:43;5.10;;;1.93;;
13114;SDS011;6623;52.120;8.660;2023-04-03T05:37:08;4.37;;;2.30;;
13114;SDS011;6623;52.120;8.660;2023-04-03T05:39:34;3.07;;;2.27;;
13114;SDS011;6623;52.120;8.660;2023-04-03T05:42:00;4.27;;;2.13;;
13114;SDS011;6623;52.120;8.660;2023-04-03T05:44:25;5.40;;;2.10;;
13114;SDS011;6623;52.120;8.660;2023-04-03T05:46:51;4.07;;;2.30;;
13114;SDS011;6623;52.120;8.660;2023-04-03T05:49:16;5.67;;;2.10;;
13114;SDS011;6623;52.120;8.660;2023-04-03T05:51:42;6.13;;;2.30;;
13114;SDS011;6623;52.120;8.660;2023-04-03T05:54:11;3.90;;;2.17;;
13114;SDS011;6623;52.120;8.660;2023-04-03T05:56:40;3.47;;;2.50;;
13114;SDS011;6623;52.120;8.660;2023-04-03T05:59:06;5.13;;;2.40;;
13114;SDS011;6623;52.120;8.660;2023-04-03T06:01:32;5.73;;;2.20;;
13114;SDS011;6623;52.120;8.660;2023-04-03T06:03:59;3.40;;;1.90;;
13114;SDS011;6623;52.120;8.660;2023-04-03T06:06:24;6.27;;;2.10;;
13114;SDS011;6623;52.120;8.660;2023-04-03T06:08:50;4.27;;;1.80;;
13114;SDS011;6623;52.120;8.660;2023-04-03T06:11:15;5.67;;;2.00;;
13114;SDS011;6623;52.120;8.660;2023-04-03T06:13:41;3.00;;;1.60;;
13114;SDS011;6623;52.120;8.660;2023-04-03T06:16:08;7.17;;;2.10;;
13114;SDS011;6623;52.120;8.660;2023-04-03T06:18:39;3.73;;;1.80;;
13114;SDS011;6623;52.120;8.660;2023-04-03T06:21:06;4.20;;;1.87;;
13114;SDS011;6623;52.120;8.660;2023-04-03T06:23:32;4.47;;;1.73;;
13114;SDS011;6623;52.120;8.660;2023-04-03T06:25:58;5.13;;;1.87;;
13114;SDS011;6623;52.120;8.660;2023-04-03T06:28:24;7.40;;;1.70;;
13114;SDS011;6623;52.120;8.660;2023-04-03T06:30:50;5.33;;;1.80;;
13114;SDS011;6623;52.120;8.660;2023-04-03T06:33:15;2.03;;;1.47;;
13114;SDS011;6623;52.120;8.660;2023-04-03T06:35:41;3.00;;;1.80;;
13114;SDS011;6623;52.120;8.660;2023-04-03T06:38:07;4.27;;;1.70;;
13114;SDS011;6623;52.120;8.660;2023-04-03T06:40:34;6.70;;;1.80;;
13114;SDS011;6623;52.120;8.660;2023-04-03T06:43:00;5.17;;;1.57;;
13114;SDS011;6623;52.120;8.660;2023-04-03T06:45:26;3.93;;;1.60;;
13114;SDS011;6623;52.120;8.660;2023-04-03T06:47:52;2.93;;;1.87;;
13114;SDS011;6623;52.120;8.660;2023-04-03T06:50:18;3.07;;;1.87;;
13114;SDS011;6623;52.120;8.660;2023-04-03T06:52:44;4.60;;;1.57;;
13114;SDS011;6623;52.120;8.660;2023-04-03T06:55:10;3.30;;;1.60;;
13114;SDS011;6623;52.120;8.660;2023-04-03T06:57:36;7.17;;;1.80;;
13114;SDS011;6623;52.120;8.660;2023-04-03T07:00:03;3.53;;;1.67;;
13114;SDS011;6623;52.120;8.660;2023-04-03T07:02:30;3.17;;;1.50;;
13114;SDS011;6623;52.120;8.660;2023-04-03T07:04:56;2.67;;;1.73;;
13114;SDS011;6623;52.120;8.660;2023-04-03T07:07:21;2.87;;;1.30;;
13114;SDS011;6623;52.120;8.660;2023-04-03T07:09:47;4.53;;;1.80;;
13114;SDS011;6623;52.120;8.660;2023-04-03T07:12:13;4.07;;;1.70;;
13114;SDS011;6623;52.120;8.660;2023-04-03T07:14:38;7.17;;;1.60;;
13114;SDS011;6623;52.120;8.660;2023-04-03T07:17:04;4.03;;;1.70;;
13114;SDS011;6623;52.120;8.660;2023-04-03T07:19:30;3.40;;;1.40;;
13114;SDS011;6623;52.120;8.660;2023-04-03T07:21:56;3.03;;;1.20;;
13114;SDS011;6623;52.120;8.660;2023-04-03T07:24:22;3.93;;;1.50;;
13114;SDS011;6623;52.120;8.660;2023-04-03T07:26:51;5.27;;;1.60;;
13114;SDS011;6623;52.120;8.660;2023-04-03T07:29:17;1.93;;;1.30;;
13114;SDS011;6623;52.120;8.660;2023-04-03T07:31:44;4.67;;;1.57;;
13114;SDS011;6623;52.120;8.660;2023-04-03T07:34:10;4.10;;;1.93;;
13114;SDS011;6623;52.120;8.660;2023-04-03T07:36:36;2.47;;;1.37;;
13114;SDS011;6623;52.120;8.660;2023-04-03T07:39:02;1.67;;;1.07;;
13114;SDS011;6623;52.120;8.660;2023-04-03T07:41:28;2.27;;;1.40;;
13114;SDS011;6623;52.120;8.660;2023-04-03T07:43:53;4.80;;;1.37;;
13114;SDS011;6623;52.120;8.660;2023-04-03T07:46:21;4.73;;;1.40;;
13114;SDS011;6623;52.120;8.660;2023-04-03T07:48:47;2.50;;;1.50;;
13114;SDS011;6623;52.120;8.660;2023-04-03T07:51:12;3.57;;;1.30;;
13114;SDS011;6623;52.120;8.660;2023-04-03T07:53:38;6.07;;;1.67;;
13114;SDS011;6623;52.120;8.660;2023-04-03T07:56:04;3.70;;;1.60;;
13114;SDS011;6623;52.120;8.660;2023-04-03T07:58:30;1.80;;;1.10;;
13114;SDS011;6623;52.120;8.660;2023-04-03T08:00:55;5.23;;;1.60;;
13114;SDS011;6623;52.120;8.660;2023-04-03T08:03:22;4.33;;;1.40;;
13114;SDS011;6623;52.120;8.660;2023-04-03T08:05:48;3.03;;;1.57;;
13114;SDS011;6623;52.120;8.660;2023-04-03T08:08:15;3.23;;;1.60;;
13114;SDS011;6623;52.120;8.660;2023-04-03T08:10:43;1.47;;;1.00;;
13114;SDS011;6623;52.120;8.660;2023-04-03T08:13:12;3.93;;;1.30;;
13114;SDS011;6623;52.120;8.660;2023-04-03T08:15:38;1.80;;;1.20;;
13114;SDS011;6623;52.120;8.660;2023-04-03T08:18:03;2.70;;;1.30;;
13114;SDS011;6623;52.120;8.660;2023-04-03T08:20:29;3.73;;;1.50;;
13114;SDS011;6623;52.120;8.660;2023-04-03T08:22:54;2.20;;;1.17;;
13114;SDS011;6623;52.120;8.660;2023-04-03T08:25:20;2.93;;;1.40;;
13114;SDS011;6623;52.120;8.660;2023-04-03T08:27:46;2.33;;;1.33;;
13114;SDS011;6623;52.120;8.660;2023-04-03T08:30:12;5.50;;;1.70;;
13114;SDS011;6623;52.120;8.660;2023-04-03T08:32:38;2.47;;;1.30;;
13114;SDS011;6623;52.120;8.660;2023-04-03T08:35:06;3.83;;;1.30;;
13114;SDS011;6623;52.120;8.660;2023-04-03T08:37:34;2.37;;;0.90;;
13114;SDS011;6623;52.120;8.660;2023-04-03T08:40:01;1.63;;;1.00;;
13114;SDS011;6623;52.120;8.660;2023-04-03T08:50:42;1.60;;;0.97;;
13114;SDS011;6623;52.120;8.660;2023-04-03T08:53:14;3.83;;;1.63;;
13114;SDS011;6623;52.120;8.660;2023-04-03T08:55:43;2.77;;;1.30;;
13114;SDS011;6623;52.120;8.660;2023-04-03T08:59:12;1.10;;;0.97;;
13114;SDS011;6623;52.120;8.660;2023-04-03T09:01:19;4.40;;;1.10;;
13114;SDS011;6623;52.120;8.660;2023-04-03T09:03:47;2.47;;;1.17;;
13114;SDS011;6623;52.120;8.660;2023-04-03T09:06:15;2.27;;;1.10;;
13114;SDS011;6623;52.120;8.660;2023-04-03T09:08:51;2.70;;;1.00;;
13114;SDS011;6623;52.120;8.660;2023-04-03T09:11:36;1.47;;;0.77;;
13114;SDS011;6623;52.120;8.660;2023-04-03T09:14:12;3.70;;;1.30;;
13114;SDS011;6623;52.120;8.660;2023-04-03T09:17:03;2.57;;;1.00;;
13114;SDS011;6623;52.120;8.660;2023-04-03T09:19:36;4.37;;;1.00;;
13114;SDS011;6623;52.120;8.660;2023-04-03T09:27:40;2.57;;;1.40;;
13114;SDS011;6623;52.120;8.660;2023-04-03T09:30:08;3.37;;;1.30;;
13114;SDS011;6623;52.120;8.660;2023-04-03T09:32:38;3.10;;;0.97;;
13114;SDS011;6623;52.120;8.660;2023-04-03T09:35:14;2.93;;;1.10;;
13114;SDS011;6623;52.120;8.660;2023-04-03T09:37:44;1.63;;;0.87;;
13114;SDS011;6623;52.120;8.660;2023-04-03T09:43:19;2.50;;;1.13;;
13114;SDS011;6623;52.120;8.660;2023-04-03T09:45:47;2.53;;;1.07;;
13114;SDS011;6623;52.120;8.660;2023-04-03T09:56:18;2.20;;;0.90;;
13114;SDS011;6623;52.120;8.660;2023-04-03T09:58:48;2.20;;;0.90;;
13114;SDS011;6623;52.120;8.660;2023-04-03T10:01:23;0.93;;;0.80;;
13114;SDS011;6623;52.120;8.660;2023-04-03T10:06:50;2.13;;;1.10;;
13114;SDS011;6623;52.120;8.660;2023-04-03T10:09:25;2.90;;;1.00;;
13114;SDS011;6623;52.120;8.660;2023-04-03T10:12:08;3.10;;;1.13;;
13114;SDS011;6623;52.120;8.660;2023-04-03T10:14:58;2.93;;;1.27;;
13114;SDS011;6623;52.120;8.660;2023-04-03T10:22:33;2.80;;;1.17;;
13114;SDS011;6623;52.120;8.660;2023-04-03T10:28:16;6.10;;;1.30;;
13114;SDS011;6623;52.120;8.660;2023-04-03T10:47:13;2.43;;;0.97;;
13114;SDS011;6623;52.120;8.660;2023-04-03T10:49:46;2.57;;;1.00;;
13114;SDS011;6623;52.120;8.660;2023-04-03T10:52:35;1.57;;;0.90;;
13114;SDS011;6623;52.120;8.660;2023-04-03T10:57:55;3.70;;;0.80;;
13114;SDS011;6623;52.120;8.660;2023-04-03T11:00:40;4.03;;;1.10;;
13114;SDS011;6623;52.120;8.660;2023-04-03T11:03:24;3.37;;;1.23;;
13114;SDS011;6623;52.120;8.660;2023-04-03T11:05:56;2.97;;;1.03;;
13114;SDS011;6623;52.120;8.660;2023-04-03T11:11:09;2.00;;;1.00;;
13114;SDS011;6623;52.120;8.660;2023-04-03T11:13:50;1.63;;;1.00;;
13114;SDS011;6623;52.120;8.660;2023-04-03T11:16:30;2.73;;;1.00;;
13114;SDS011;6623;52.120;8.660;2023-04-03T11:19:01;3.63;;;1.00;;
13114;SDS011;6623;52.120;8.660;2023-04-03T11:24:05;3.97;;;1.40;;
13114;SDS011;6623;52.120;8.660;2023-04-03T11:26:38;7.50;;;1.30;;
13114;SDS011;6623;52.120;8.660;2023-04-03T11:29:08;3.80;;;1.27;;
13114;SDS011;6623;52.120;8.660;2023-04-03T11:31:43;3.43;;;1.50;;
13114;SDS011;6623;52.120;8.660;2023-04-03T11:34:39;4.30;;;1.10;;
13114;SDS011;6623;52.120;8.660;2023-04-03T11:37:27;3.93;;;0.90;;
13114;SDS011;6623;52.120;8.660;2023-04-03T11:40:02;2.50;;;1.20;;
13114;SDS011;6623;52.120;8.660;2023-04-03T11:42:42;3.87;;;0.90;;
13114;SDS011;6623;52.120;8.660;2023-04-03T11:45:24;2.50;;;1.00;;
13114;SDS011;6623;52.120;8.660;2023-04-03T11:47:57;4.33;;;0.90;;
13114;SDS011;6623;52.120;8.660;2023-04-03T11:50:42;3.73;;;1.10;;
13114;SDS011;6623;52.120;8.660;2023-04-03T11:58:19;1.07;;;0.80;;
13114;SDS011;6623;52.120;8.660;2023-04-03T12:00:48;2.60;;;1.20;;
13114;SDS011;6623;52.120;8.660;2023-04-03T12:05:48;2.37;;;1.03;;
13114;SDS011;6623;52.120;8.660;2023-04-03T12:13:43;1.43;;;0.90;;
13114;SDS011;6623;52.120;8.660;2023-04-03T12:16:31;3.27;;;0.90;;
13114;SDS011;6623;52.120;8.660;2023-04-03T12:48:33;3.17;;;0.90;;
13114;SDS011;6623;52.120;8.660;2023-04-03T12:51:03;3.37;;;1.00;;
13114;SDS011;6623;52.120;8.660;2023-04-03T12:53:34;3.17;;;1.33;;
13114;SDS011;6623;52.120;8.660;2023-04-03T12:58:51;1.47;;;0.80;;
13114;SDS011;6623;52.120;8.660;2023-04-03T13:01:20;2.63;;;1.20;;
13114;SDS011;6623;52.120;8.660;2023-04-03T13:03:49;1.40;;;0.90;;
13114;SDS011;6623;52.120;8.660;2023-04-03T13:06:22;2.43;;;0.93;;
13114;SDS011;6623;52.120;8.660;2023-04-03T13:08:54;1.10;;;0.70;;
13114;SDS011;6623;52.120;8.660;2023-04-03T13:11:22;1.67;;;0.77;;
13114;SDS011;6623;52.120;8.660;2023-04-03T13:13:57;1.93;;;1.00;;
13114;SDS011;6623;52.120;8.660;2023-04-03T13:16:25;1.80;;;1.00;;
13114;SDS011;6623;52.120;8.660;2023-04-03T13:18:52;1.53;;;0.83;;
13114;SDS011;6623;52.120;8.660;2023-04-03T13:21:19;1.97;;;0.87;;
13114;SDS011;6623;52.120;8.660;2023-04-03T13:23:49;1.93;;;0.70;;
13114;SDS011;6623;52.120;8.660;2023-04-03T13:26:18;1.20;;;0.90;;
13114;SDS011;6623;52.120;8.660;2023-04-03T13:28:46;1.77;;;1.10;;
13114;SDS011;6623;52.120;8.660;2023-04-03T13:33:39;1.33;;;0.80;;
13114;SDS011;6623;52.120;8.660;2023-04-03T13:36:18;3.30;;;1.10;;
13114;SDS011;6623;52.120;8.660;2023-04-03T13:38:45;2.33;;;1.00;;
13114;SDS011;6623;52.120;8.660;2023-04-03T13:41:26;1.50;;;0.80;;
13114;SDS011;6623;52.120;8.660;2023-04-03T13:43:56;3.80;;;0.97;;
13114;SDS011;6623;52.120;8.660;2023-04-03T13:46:22;3.47;;;1.27;;
13114;SDS011;6623;52.120;8.660;2023-04-03T13:48:52;4.17;;;1.07;;
13114;SDS011;6623;52.120;8.660;2023-04-03T13:51:22;2.70;;;1.20;;
13114;SDS011;6623;52.120;8.660;2023-04-03T13:53:50;3.23;;;1.20;;
13114;SDS011;6623;52.120;8.660;2023-04-03T13:56:25;1.90;;;0.90;;
13114;SDS011;6623;52.120;8.660;2023-04-03T13:58:57;2.83;;;1.07;;
13114;SDS011;6623;52.120;8.660;2023-04-03T14:01:25;1.73;;;1.00;;
13114;SDS011;6623;52.120;8.660;2023-04-03T14:04:11;2.27;;;0.83;;
13114;SDS011;6623;52.120;8.660;2023-04-03T14:06:39;3.27;;;0.90;;
13114;SDS011;6623;52.120;8.660;2023-04-03T14:09:05;2.30;;;1.10;;
13114;SDS011;6623;52.120;8.660;2023-04-03T14:11:31;1.93;;;0.80;;
13114;SDS011;6623;52.120;8.660;2023-04-03T14:13:57;1.07;;;0.77;;
13114;SDS011;6623;52.120;8.660;2023-04-03T14:16:29;2.40;;;1.00;;
13114;SDS011;6623;52.120;8.660;2023-04-03T14:18:57;1.53;;;1.07;;
13114;SDS011;6623;52.120;8.660;2023-04-03T14:21:23;5.10;;;1.00;;
13114;SDS011;6623;52.120;8.660;2023-04-03T14:23:49;2.63;;;0.90;;
13114;SDS011;6623;52.120;8.660;2023-04-03T14:26:24;2.00;;;1.13;;
13114;SDS011;6623;52.120;8.660;2023-04-03T14:28:52;1.97;;;1.00;;
13114;SDS011;6623;52.120;8.660;2023-04-03T14:31:23;1.57;;;0.90;;
13114;SDS011;6623;52.120;8.660;2023-04-03T14:33:49;2.17;;;1.03;;
13114;SDS011;6623;52.120;8.660;2023-04-03T14:36:16;3.60;;;0.90;;
13114;SDS011;6623;52.120;8.660;2023-04-03T14:38:54;1.10;;;1.00;;
13114;SDS011;6623;52.120;8.660;2023-04-03T14:41:21;1.03;;;0.93;;
13114;SDS011;6623;52.120;8.660;2023-04-03T14:43:48;3.20;;;1.10;;
13114;SDS011;6623;52.120;8.660;2023-04-03T14:46:17;2.70;;;0.93;;
13114;SDS011;6623;52.120;8.660;2023-04-03T14:48:46;1.60;;;0.77;;
13114;SDS011;6623;52.120;8.660;2023-04-03T14:51:12;2.07;;;1.13;;
13114;SDS011;6623;52.120;8.660;2023-04-03T14:53:39;4.67;;;1.20;;
13114;SDS011;6623;52.120;8.660;2023-04-03T14:56:40;1.33;;;0.80;;
13114;SDS011;6623;52.120;8.660;2023-04-03T14:58:59;3.03;;;0.90;;
13114;SDS011;6623;52.120;8.660;2023-04-03T15:01:26;1.53;;;1.07;;
13114;SDS011;6623;52.120;8.660;2023-04-03T15:03:53;2.50;;;1.03;;
13114;SDS011;6623;52.120;8.660;2023-04-03T15:06:19;1.30;;;0.80;;
13114;SDS011;6623;52.120;8.660;2023-04-03T15:08:46;3.23;;;0.97;;
13114;SDS011;6623;52.120;8.660;2023-04-03T15:11:12;3.07;;;1.10;;
13114;SDS011;6623;52.120;8.660;2023-04-03T15:13:39;2.03;;;1.13;;
13114;SDS011;6623;52.120;8.660;2023-04-03T15:16:05;1.43;;;0.90;;
13114;SDS011;6623;52.120;8.660;2023-04-03T15:18:44;2.00;;;1.30;;
13114;SDS011;6623;52.120;8.660;2023-04-03T15:21:11;2.13;;;1.20;;
13114;SDS011;6623;52.120;8.660;2023-04-03T15:23:37;2.50;;;1.00;;
13114;SDS011;6623;52.120;8.660;2023-04-03T15:26:02;3.90;;;1.20;;
13114;SDS011;6623;52.120;8.660;2023-04-03T15:28:32;1.83;;;1.10;;
13114;SDS011;6623;52.120;8.660;2023-04-03T15:31:01;2.40;;;0.93;;
13114;SDS011;6623;52.120;8.660;2023-04-03T15:33:27;2.73;;;1.00;;
13114;SDS011;6623;52.120;8.660;2023-04-03T15:35:53;2.00;;;1.10;;
13114;SDS011;6623;52.120;8.660;2023-04-03T15:38:18;1.40;;;0.90;;
13114;SDS011;6623;52.120;8.660;2023-04-03T15:40:44;2.63;;;1.23;;
13114;SDS011;6623;52.120;8.660;2023-04-03T15:43:11;2.67;;;1.20;;
13114;SDS011;6623;52.120;8.660;2023-04-03T15:45:38;2.13;;;0.87;;
13114;SDS011;6623;52.120;8.660;2023-04-03T15:48:04;3.20;;;1.20;;
13114;SDS011;6623;52.120;8.660;2023-04-03T15:50:30;3.13;;;1.10;;
13114;SDS011;6623;52.120;8.660;2023-04-03T15:52:56;2.33;;;1.00;;
13114;SDS011;6623;52.120;8.660;2023-04-03T15:55:26;3.07;;;1.23;;
13114;SDS011;6623;52.120;8.660;2023-04-03T15:57:53;1.53;;;1.07;;
13114;SDS011;6623;52.120;8.660;2023-04-03T16:00:19;1.43;;;0.90;;
13114;SDS011;6623;52.120;8.660;2023-04-03T16:02:46;2.40;;;1.00;;
13114;SDS011;6623;52.120;8.660;2023-04-03T16:05:13;1.43;;;1.00;;
13114;SDS011;6623;52.120;8.660;2023-04-03T16:07:42;2.30;;;1.00;;
13114;SDS011;6623;52.120;8.660;2023-04-03T16:10:09;2.90;;;1.07;;
13114;SDS011;6623;52.120;8.660;2023-04-03T16:12:36;2.10;;;1.00;;
13114;SDS011;6623;52.120;8.660;2023-04-03T16:15:04;1.57;;;0.90;;
13114;SDS011;6623;52.120;8.660;2023-04-03T16:17:31;2.13;;;1.10;;
13114;SDS011;6623;52.120;8.660;2023-04-03T16:19:58;1.47;;;0.90;;
13114;SDS011;6623;52.120;8.660;2023-04-03T16:22:24;1.67;;;0.93;;
13114;SDS011;6623;52.120;8.660;2023-04-03T16:24:51;2.03;;;0.87;;
13114;SDS011;6623;52.120;8.660;2023-04-03T16:27:17;3.43;;;1.13;;
13114;SDS011;6623;52.120;8.660;2023-04-03T16:29:42;2.77;;;1.10;;
13114;SDS011;6623;52.120;8.660;2023-04-03T16:32:08;1.73;;;1.10;;
13114;SDS011;6623;52.120;8.660;2023-04-03T16:34:33;1.47;;;0.90;;
13114;SDS011;6623;52.120;8.660;2023-04-03T16:36:59;2.30;;;0.90;;
13114;SDS011;6623;52.120;8.660;2023-04-03T16:39:25;2.30;;;1.20;;
13114;SDS011;6623;52.120;8.660;2023-04-03T16:41:51;2.17;;;0.83;;
13114;SDS011;6623;52.120;8.660;2023-04-03T16:44:16;2.60;;;1.03;;
13114;SDS011;6623;52.120;8.660;2023-04-03T16:46:42;2.60;;;1.10;;
13114;SDS011;6623;52.120;8.660;2023-04-03T16:49:08;2.10;;;0.93;;
13114;SDS011;6623;52.120;8.660;2023-04-03T16:51:33;1.57;;;1.00;;
13114;SDS011;6623;52.120;8.660;2023-04-03T16:53:59;1.87;;;0.90;;
13114;SDS011;6623;52.120;8.660;2023-04-03T16:56:25;3.33;;;1.00;;
13114;SDS011;6623;52.120;8.660;2023-04-03T16:58:54;2.23;;;1.00;;
13114;SDS011;6623;52.120;8.660;2023-04-03T17:01:20;3.27;;;1.10;;
13114;SDS011;6623;52.120;8.660;2023-04-03T17:03:47;1.57;;;0.80;;